Time;durP1;ratioP1;P1;durP2;ratioP2;P2;SDS_P1;SDS_P2;PMS_P1;PMS_P2;Temp;Humidity;BMP_temperature;BMP_pressure;BME280_temperature;BME280_humidity;BME280_pressure;Samples;Min_cycle;Max_cycle;Signal;HPM_P1;HPM_P2
2023/06/27 00:01:49;;;;;;;4.30;2.00;;;;;;;;;;5034950;28;20033;-72
2023/06/27 00:04:15;;;;;;;3.42;2.03;;;;;;;;;;5034979;28;20035;-72
2023/06/27 00:06:41;;;;;;;3.30;1.65;;;;;;;;;;5033560;28;20032;-72
2023/06/27 00:09:09;;;;;;;4.10;1.80;;;;;;;;;;5034785;28;20527;-72
2023/06/27 00:11:36;;;;;;;9.45;2.25;;;;;;;;;;5034898;28;20021;-72
2023/06/27 00:14:04;;;;;;;5.13;2.00;;;;;;;;;;5034894;28;20022;-72
2023/06/27 00:16:32;;;;;;;4.15;1.80;;;;;;;;;;5034925;28;20026;-72
2023/06/27 00:19:02;;;;;;;2.33;1.80;;;;;;;;;;5034984;28;20029;-72
2023/06/27 00:21:29;;;;;;;6.07;1.90;;;;;;;;;;5034910;28;20018;-72
2023/06/27 00:23:56;;;;;;;2.08;1.63;;;;;;;;;;5034847;28;20108;-72
2023/06/27 00:26:22;;;;;;;5.47;1.90;;;;;;;;;;5034787;28;20021;-72
2023/06/27 00:28:48;;;;;;;3.28;1.60;;;;;;;;;;5033114;28;20036;-72
2023/06/27 00:31:14;;;;;;;2.05;1.55;;;;;;;;;;5034705;28;20029;-72
2023/06/27 00:33:40;;;;;;;3.30;1.50;;;;;;;;;;5034509;28;20040;-72
2023/06/27 00:36:07;;;;;;;3.70;1.48;;;;;;;;;;5034398;28;20037;-72
2023/06/27 00:38:33;;;;;;;4.07;1.60;;;;;;;;;;5034593;28;20380;-72
2023/06/27 00:41:00;;;;;;;3.70;1.48;;;;;;;;;;5034580;28;20024;-72
2023/06/27 00:43:28;;;;;;;2.58;1.38;;;;;;;;;;5034514;28;20036;-72
2023/06/27 00:45:54;;;;;;;4.40;1.73;;;;;;;;;;5034850;28;20061;-72
2023/06/27 00:48:20;;;;;;;3.75;1.42;;;;;;;;;;5034588;28;20022;-72
2023/06/27 00:50:47;;;;;;;3.08;1.60;;;;;;;;;;5034277;28;20443;-72
2023/06/27 00:53:14;;;;;;;5.97;1.60;;;;;;;;;;5034124;28;20465;-72
2023/06/27 00:55:40;;;;;;;3.13;1.58;;;;;;;;;;5032609;28;20136;-72
2023/06/27 00:58:08;;;;;;;4.55;1.58;;;;;;;;;;5033633;28;20017;-72
2023/06/27 01:00:34;;;;;;;5.00;1.77;;;;;;;;;;5033923;28;20071;-72
2023/06/27 01:03:02;;;;;;;3.95;1.63;;;;;;;;;;5033997;28;20036;-72
2023/06/27 01:05:29;;;;;;;2.67;1.65;;;;;;;;;;5033920;28;20027;-72
2023/06/27 01:07:57;;;;;;;3.22;1.60;;;;;;;;;;5033799;28;20113;-72
2023/06/27 01:10:29;;;;;;;6.15;1.85;;;;;;;;;;5033688;28;20037;-72
2023/06/27 01:12:58;;;;;;;3.70;1.83;;;;;;;;;;5033792;28;20084;-72
2023/06/27 01:15:24;;;;;;;3.30;1.73;;;;;;;;;;5033623;28;20112;-72
2023/06/27 01:17:51;;;;;;;5.55;1.90;;;;;;;;;;5033255;28;20533;-72
2023/06/27 01:20:18;;;;;;;3.65;2.00;;;;;;;;;;5033585;28;20030;-72
2023/06/27 01:22:47;;;;;;;5.32;1.80;;;;;;;;;;5032210;28;20159;-72
2023/06/27 01:25:13;;;;;;;6.50;2.03;;;;;;;;;;5033491;28;20044;-72
2023/06/27 01:27:39;;;;;;;3.65;2.00;;;;;;;;;;5033658;28;20379;-72
2023/06/27 01:30:06;;;;;;;3.08;1.70;;;;;;;;;;5033198;28;20525;-72
2023/06/27 01:32:55;;;;;;;4.13;1.80;;;;;;;;;;5033006;28;20540;-73
2023/06/27 01:35:26;;;;;;;3.40;1.90;;;;;;;;;;5033025;28;20037;-73
2023/06/27 01:37:56;;;;;;;4.53;1.98;;;;;;;;;;5033227;28;20026;-73
2023/06/27 01:40:24;;;;;;;3.30;1.80;;;;;;;;;;5033111;28;20148;-74
2023/06/27 01:42:50;;;;;;;4.45;1.67;;;;;;;;;;5033105;28;20029;-73
2023/06/27 01:45:18;;;;;;;6.55;2.25;;;;;;;;;;5033097;28;20029;-73
2023/06/27 01:47:44;;;;;;;4.38;1.92;;;;;;;;;;5033002;28;20029;-73
2023/06/27 01:50:11;;;;;;;4.03;2.00;;;;;;;;;;5032969;28;20025;-73
2023/06/27 01:52:37;;;;;;;4.57;2.17;;;;;;;;;;5032995;28;20034;-73
2023/06/27 01:55:03;;;;;;;2.58;1.50;;;;;;;;;;5032677;28;20061;-73
2023/06/27 01:57:29;;;;;;;5.65;1.83;;;;;;;;;;5032852;28;20977;-73
2023/06/27 01:59:55;;;;;;;4.40;2.00;;;;;;;;;;5032257;28;20373;-73
2023/06/27 02:02:21;;;;;;;5.32;1.92;;;;;;;;;;5032254;28;20025;-73
2023/06/27 02:04:48;;;;;;;4.63;2.20;;;;;;;;;;5032808;28;20026;-73
2023/06/27 02:07:14;;;;;;;4.07;2.05;;;;;;;;;;5032666;28;20025;-73
2023/06/27 02:09:40;;;;;;;6.10;2.05;;;;;;;;;;5032717;28;20026;-73
2023/06/27 02:12:09;;;;;;;4.38;2.15;;;;;;;;;;5032669;28;20449;-73
2023/06/27 02:14:35;;;;;;;4.55;2.15;;;;;;;;;;5032758;28;20024;-73
2023/06/27 02:17:01;;;;;;;4.85;2.47;;;;;;;;;;5031775;28;20025;-73
2023/06/27 02:19:27;;;;;;;4.78;2.05;;;;;;;;;;5032354;28;20068;-73
2023/06/27 02:21:53;;;;;;;4.78;2.53;;;;;;;;;;5032524;28;20057;-73
2023/06/27 02:24:19;;;;;;;5.57;2.72;;;;;;;;;;5032407;28;20061;-73
2023/06/27 02:26:46;;;;;;;6.53;2.85;;;;;;;;;;5032454;28;20087;-73
2023/06/27 02:29:12;;;;;;;12.18;3.30;;;;;;;;;;5031887;28;20018;-73
2023/06/27 02:31:38;;;;;;;5.88;2.60;;;;;;;;;;5032499;28;20125;-73
2023/06/27 02:34:04;;;;;;;6.47;2.83;;;;;;;;;;5032328;28;20525;-73
2023/06/27 02:36:30;;;;;;;5.70;2.58;;;;;;;;;;5032484;28;20617;-73
2023/06/27 02:38:56;;;;;;;5.15;2.50;;;;;;;;;;5032284;28;20030;-73
2023/06/27 02:41:23;;;;;;;5.35;2.58;;;;;;;;;;5032272;28;20060;-72
2023/06/27 02:43:49;;;;;;;5.60;2.10;;;;;;;;;;5032191;28;20421;-73
2023/06/27 02:46:15;;;;;;;5.18;2.33;;;;;;;;;;5032299;28;20365;-73
2023/06/27 02:48:41;;;;;;;5.05;2.58;;;;;;;;;;5032188;28;20048;-73
2023/06/27 02:51:07;;;;;;;5.68;1.92;;;;;;;;;;5032494;28;20025;-73
2023/06/27 02:53:33;;;;;;;4.55;2.10;;;;;;;;;;5032025;28;20033;-73
2023/06/27 02:56:02;;;;;;;6.35;2.50;;;;;;;;;;5030980;28;20042;-73
2023/06/27 02:58:29;;;;;;;3.10;2.03;;;;;;;;;;5031993;28;20530;-73
2023/06/27 03:00:55;;;;;;;3.42;1.73;;;;;;;;;;5032102;28;20590;-73
2023/06/27 03:03:21;;;;;;;7.03;2.28;;;;;;;;;;5031966;28;20465;-73
2023/06/27 03:05:47;;;;;;;3.47;2.00;;;;;;;;;;5031714;28;20032;-73
2023/06/27 03:08:13;;;;;;;3.85;2.10;;;;;;;;;;5030625;28;20443;-73
2023/06/27 03:10:39;;;;;;;6.82;2.42;;;;;;;;;;5030835;28;20468;-73
2023/06/27 03:13:05;;;;;;;4.45;2.20;;;;;;;;;;5031972;28;20071;-73
2023/06/27 03:15:31;;;;;;;4.28;2.47;;;;;;;;;;5030621;28;20037;-73
2023/06/27 03:17:57;;;;;;;3.97;2.10;;;;;;;;;;5031915;28;20487;-73
2023/06/27 03:20:23;;;;;;;4.05;2.05;;;;;;;;;;5030559;28;20022;-73
2023/06/27 03:22:49;;;;;;;8.93;2.00;;;;;;;;;;5030898;28;20510;-73
2023/06/27 03:25:15;;;;;;;5.25;2.00;;;;;;;;;;5031894;28;20041;-73
2023/06/27 03:27:41;;;;;;;5.40;2.20;;;;;;;;;;5031830;28;20030;-73
2023/06/27 03:30:07;;;;;;;5.20;2.20;;;;;;;;;;5031775;28;20080;-73
2023/06/27 03:32:34;;;;;;;8.85;1.80;;;;;;;;;;5031798;28;20076;-73
2023/06/27 03:35:00;;;;;;;5.82;2.20;;;;;;;;;;5031727;28;20029;-73
2023/06/27 03:37:26;;;;;;;4.82;1.85;;;;;;;;;;5031497;28;20030;-73
2023/06/27 03:39:52;;;;;;;4.63;2.00;;;;;;;;;;5032232;28;20025;-73
2023/06/27 03:42:19;;;;;;;3.92;2.00;;;;;;;;;;5035274;28;20021;-73
2023/06/27 03:44:45;;;;;;;5.47;2.10;;;;;;;;;;5035343;28;20036;-73
2023/06/27 03:47:11;;;;;;;2.28;1.85;;;;;;;;;;5035174;28;20063;-73
2023/06/27 03:49:37;;;;;;;5.95;1.98;;;;;;;;;;5035214;28;20108;-73
2023/06/27 03:52:04;;;;;;;5.47;1.92;;;;;;;;;;5035174;28;20041;-73
2023/06/27 03:54:30;;;;;;;2.83;1.42;;;;;;;;;;5034846;28;20014;-73
2023/06/27 03:56:56;;;;;;;3.13;1.63;;;;;;;;;;5035137;28;20025;-73
2023/06/27 03:59:22;;;;;;;4.05;1.73;;;;;;;;;;5034945;28;20021;-73
2023/06/27 04:01:48;;;;;;;3.65;1.50;;;;;;;;;;5035001;28;20361;-73
2023/06/27 04:04:14;;;;;;;6.50;3.35;;;;;;;;;;5034912;28;20506;-73
2023/06/27 04:06:47;;;;;;;3.85;1.63;;;;;;;;;;5034852;28;20040;-73
2023/06/27 04:09:13;;;;;;;5.40;1.83;;;;;;;;;;5034873;28;20042;-73
2023/06/27 04:11:39;;;;;;;6.00;1.65;;;;;;;;;;5034811;28;20025;-73
2023/06/27 04:14:05;;;;;;;3.55;1.50;;;;;;;;;;5034695;28;20100;-73
2023/06/27 04:16:32;;;;;;;3.58;1.25;;;;;;;;;;5033293;28;20102;-73
2023/06/27 04:18:58;;;;;;;8.88;1.55;;;;;;;;;;5035118;28;20037;-73
2023/06/27 04:21:24;;;;;;;3.00;1.58;;;;;;;;;;5034625;28;20076;-73
2023/06/27 04:23:51;;;;;;;5.72;1.50;;;;;;;;;;5034345;28;20067;-73
2023/06/27 04:26:17;;;;;;;2.15;1.10;;;;;;;;;;5034486;28;20033;-73
2023/06/27 04:28:44;;;;;;;4.32;1.10;;;;;;;;;;5034417;28;20025;-74
2023/06/27 04:31:10;;;;;;;4.80;1.30;;;;;;;;;;5034319;28;20022;-74
2023/06/27 04:33:39;;;;;;;6.22;1.20;;;;;;;;;;5034346;28;20108;-74
2023/06/27 04:36:08;;;;;;;2.50;0.80;;;;;;;;;;5034075;28;20041;-74
2023/06/27 04:38:37;;;;;;;4.80;1.02;;;;;;;;;;5034242;28;20068;-73
2023/06/27 04:41:04;;;;;;;3.50;1.10;;;;;;;;;;5017902;28;20099;-74
2023/06/27 04:43:32;;;;;;;3.70;1.10;;;;;;;;;;5033947;28;20416;-74
2023/06/27 04:45:58;;;;;;;3.67;1.00;;;;;;;;;;5034096;28;20108;-74
2023/06/27 04:48:24;;;;;;;3.55;1.10;;;;;;;;;;5034332;28;20028;-74
2023/06/27 04:50:50;;;;;;;2.88;0.90;;;;;;;;;;5034077;28;20030;-74
2023/06/27 04:53:19;;;;;;;4.10;0.80;;;;;;;;;;5032476;28;20021;-74
2023/06/27 04:55:46;;;;;;;2.33;1.00;;;;;;;;;;5032728;28;20050;-74
2023/06/27 04:58:12;;;;;;;2.78;1.02;;;;;;;;;;5033840;28;20064;-74
2023/06/27 05:00:38;;;;;;;4.57;1.08;;;;;;;;;;5033821;28;20080;-74
2023/06/27 05:03:04;;;;;;;4.45;0.85;;;;;;;;;;5033737;28;20087;-74
2023/06/27 05:05:32;;;;;;;3.92;0.80;;;;;;;;;;5033562;28;20029;-74
2023/06/27 05:07:59;;;;;;;2.63;0.90;;;;;;;;;;5034307;28;20029;-74
2023/06/27 05:10:25;;;;;;;3.80;1.08;;;;;;;;;;5033660;28;20030;-75
2023/06/27 05:12:51;;;;;;;3.70;0.85;;;;;;;;;;5033616;28;20067;-75
2023/06/27 05:15:17;;;;;;;3.80;1.10;;;;;;;;;;5033439;28;20124;-75
2023/06/27 05:17:49;;;;;;;2.10;0.70;;;;;;;;;;5033531;28;20037;-75
2023/06/27 05:20:15;;;;;;;5.82;1.00;;;;;;;;;;5033449;28;20045;-75
2023/06/27 05:22:41;;;;;;;2.53;0.70;;;;;;;;;;5033396;28;20056;-74
2023/06/27 05:25:07;;;;;;;5.30;0.85;;;;;;;;;;5033296;28;20456;-74
2023/06/27 05:27:33;;;;;;;3.83;0.70;;;;;;;;;;5031906;28;20033;-75
2023/06/27 05:29:59;;;;;;;3.08;0.70;;;;;;;;;;5033225;28;20068;-75
2023/06/27 05:32:25;;;;;;;3.15;1.23;;;;;;;;;;5033162;28;20030;-75
2023/06/27 05:34:51;;;;;;;4.80;0.80;;;;;;;;;;5033089;28;20068;-75
2023/06/27 05:37:17;;;;;;;3.78;0.75;;;;;;;;;;5031289;28;20418;-75
2023/06/27 05:39:43;;;;;;;4.88;1.00;;;;;;;;;;5015630;28;20030;-75
2023/06/27 05:42:09;;;;;;;3.28;0.82;;;;;;;;;;5033029;28;20519;-75
2023/06/27 05:44:35;;;;;;;4.15;0.95;;;;;;;;;;5033083;28;20037;-75
2023/06/27 05:47:01;;;;;;;2.35;0.80;;;;;;;;;;5033002;28;20033;-75
2023/06/27 05:49:28;;;;;;;2.55;0.60;;;;;;;;;;5033424;28;20033;-75
2023/06/27 05:51:54;;;;;;;4.90;0.80;;;;;;;;;;5032853;28;20068;-75
2023/06/27 05:54:20;;;;;;;4.82;0.90;;;;;;;;;;5021629;28;20045;-75
2023/06/27 05:56:46;;;;;;;3.40;0.90;;;;;;;;;;5022046;28;20049;-75
2023/06/27 05:59:12;;;;;;;2.55;0.80;;;;;;;;;;5032658;28;20112;-75
2023/06/27 06:01:38;;;;;;;2.78;0.70;;;;;;;;;;5030177;28;20030;-75
2023/06/27 06:04:04;;;;;;;3.55;1.00;;;;;;;;;;5023944;28;20464;-75
2023/06/27 06:06:33;;;;;;;2.63;0.93;;;;;;;;;;5013126;28;20032;-75
2023/06/27 06:09:00;;;;;;;3.10;1.10;;;;;;;;;;5024191;28;20017;-73
2023/06/27 06:11:26;;;;;;;5.25;0.80;;;;;;;;;;5032566;28;20025;-73
2023/06/27 06:13:59;;;;;;;2.50;1.00;;;;;;;;;;5032496;28;20032;-73
2023/06/27 06:16:27;;;;;;;3.92;1.02;;;;;;;;;;5032421;28;20109;-74
2023/06/27 06:18:53;;;;;;;2.78;0.90;;;;;;;;;;5033039;28;20439;-73
2023/06/27 06:21:20;;;;;;;4.53;1.15;;;;;;;;;;5032369;28;20029;-73
2023/06/27 06:23:46;;;;;;;4.25;0.98;;;;;;;;;;5032663;28;20448;-74
2023/06/27 06:26:12;;;;;;;3.30;1.10;;;;;;;;;;5032698;28;20029;-73
2023/06/27 06:28:40;;;;;;;5.13;1.27;;;;;;;;;;5032857;28;20112;-73
2023/06/27 06:31:07;;;;;;;3.07;0.77;;;;;;;;;;5032679;28;20473;-73
2023/06/27 06:33:33;;;;;;;2.75;0.90;;;;;;;;;;5032470;28;20021;-73
2023/06/27 06:35:59;;;;;;;4.22;0.93;;;;;;;;;;5032403;28;20073;-73
2023/06/27 06:38:25;;;;;;;3.92;1.17;;;;;;;;;;5032448;28;20049;-73
2023/06/27 06:40:51;;;;;;;4.10;1.00;;;;;;;;;;5032159;28;20599;-73
2023/06/27 06:43:17;;;;;;;6.10;1.13;;;;;;;;;;5032150;28;20112;-73
2023/06/27 06:45:43;;;;;;;4.28;1.20;;;;;;;;;;5032167;28;20033;-73
2023/06/27 06:48:09;;;;;;;4.45;1.13;;;;;;;;;;5032151;28;20445;-73
2023/06/27 06:50:35;;;;;;;3.15;1.00;;;;;;;;;;5032290;28;20057;-73
2023/06/27 06:53:01;;;;;;;2.90;0.98;;;;;;;;;;5032181;28;20018;-73
2023/06/27 06:55:27;;;;;;;3.33;0.73;;;;;;;;;;5031421;28;20060;-73
2023/06/27 06:57:53;;;;;;;6.95;1.17;;;;;;;;;;5029238;28;20029;-73
2023/06/27 07:00:20;;;;;;;4.88;1.00;;;;;;;;;;5012201;28;20057;-73
2023/06/27 07:02:46;;;;;;;4.00;1.20;;;;;;;;;;5012084;28;20022;-73
2023/06/27 07:05:12;;;;;;;3.67;0.80;;;;;;;;;;5012327;28;20037;-73
2023/06/27 07:07:38;;;;;;;3.00;0.98;;;;;;;;;;5028423;28;20029;-73
2023/06/27 07:10:04;;;;;;;2.40;0.70;;;;;;;;;;5031736;28;20061;-73
2023/06/27 07:12:30;;;;;;;3.50;1.17;;;;;;;;;;5030692;28;20026;-73
2023/06/27 07:14:56;;;;;;;6.32;1.30;;;;;;;;;;5032466;28;20032;-73
2023/06/27 07:17:22;;;;;;;5.95;1.30;;;;;;;;;;5035925;28;20026;-73
2023/06/27 07:19:48;;;;;;;4.22;1.27;;;;;;;;;;5035532;28;20028;-73
2023/06/27 07:22:14;;;;;;;4.78;1.30;;;;;;;;;;5034595;28;20037;-74
2023/06/27 07:24:41;;;;;;;6.40;1.38;;;;;;;;;;5035609;28;20033;-73
2023/06/27 07:27:07;;;;;;;5.22;1.70;;;;;;;;;;5035522;28;20117;-73
2023/06/27 07:29:33;;;;;;;3.70;0.85;;;;;;;;;;5035529;28;20064;-73
2023/06/27 07:31:59;;;;;;;2.28;0.82;;;;;;;;;;5035323;28;20037;-73
2023/06/27 07:34:26;;;;;;;5.13;1.10;;;;;;;;;;5035333;28;20105;-73
2023/06/27 07:36:52;;;;;;;5.22;1.10;;;;;;;;;;5035559;28;20037;-73
2023/06/27 07:39:18;;;;;;;6.05;1.30;;;;;;;;;;5035117;28;20021;-73
2023/06/27 07:41:44;;;;;;;3.92;1.10;;;;;;;;;;5035303;28;20461;-73
2023/06/27 07:44:10;;;;;;;2.92;0.90;;;;;;;;;;5035126;28;20034;-73
2023/06/27 07:46:36;;;;;;;5.82;0.82;;;;;;;;;;5035236;28;20064;-73
2023/06/27 07:49:02;;;;;;;2.55;0.90;;;;;;;;;;5034267;28;20052;-73
2023/06/27 07:51:29;;;;;;;4.82;1.05;;;;;;;;;;5035080;28;20060;-73
2023/06/27 07:53:56;;;;;;;6.53;1.05;;;;;;;;;;5034266;28;20049;-73
2023/06/27 07:56:23;;;;;;;2.92;0.80;;;;;;;;;;5034708;28;20049;-73
2023/06/27 07:58:49;;;;;;;4.00;1.00;;;;;;;;;;5034608;28;20451;-73
2023/06/27 08:01:15;;;;;;;7.90;1.00;;;;;;;;;;5034030;28;20067;-73
2023/06/27 08:03:41;;;;;;;5.88;1.00;;;;;;;;;;5033423;28;20026;-73
2023/06/27 08:06:07;;;;;;;3.28;1.00;;;;;;;;;;5033709;28;20388;-73
2023/06/27 08:08:33;;;;;;;6.57;1.38;;;;;;;;;;5034443;28;20060;-73
2023/06/27 08:10:59;;;;;;;6.18;1.73;;;;;;;;;;5034454;28;20401;-73
2023/06/27 08:13:25;;;;;;;3.42;0.80;;;;;;;;;;5035011;28;20037;-73
2023/06/27 08:15:51;;;;;;;4.55;1.10;;;;;;;;;;5034619;28;20022;-73
2023/06/27 08:18:17;;;;;;;7.85;1.20;;;;;;;;;;5034551;28;20112;-73
2023/06/27 08:20:43;;;;;;;5.68;1.20;;;;;;;;;;5034886;28;20025;-73
2023/06/27 08:23:09;;;;;;;4.38;1.35;;;;;;;;;;5034519;28;20535;-73
2023/06/27 08:25:35;;;;;;;5.05;1.02;;;;;;;;;;5033161;28;20030;-73
2023/06/27 08:28:01;;;;;;;6.15;1.40;;;;;;;;;;5033241;28;20346;-73
2023/06/27 08:30:28;;;;;;;4.93;1.00;;;;;;;;;;5034269;28;20452;-73
2023/06/27 08:32:56;;;;;;;3.78;1.00;;;;;;;;;;5034262;28;20025;-73
2023/06/27 08:35:22;;;;;;;7.00;1.45;;;;;;;;;;5034560;28;20033;-73
2023/06/27 08:37:48;;;;;;;5.32;1.25;;;;;;;;;;5037145;28;20036;-73
2023/06/27 08:40:21;;;;;;;6.35;1.38;;;;;;;;;;5034137;28;20072;-73
2023/06/27 08:42:47;;;;;;;6.65;1.42;;;;;;;;;;5034461;28;20617;-73
2023/06/27 08:45:13;;;;;;;4.00;1.00;;;;;;;;;;5033951;28;20503;-73
2023/06/27 08:47:43;;;;;;;3.20;0.90;;;;;;;;;;5033744;28;20022;-74
2023/06/27 08:50:11;;;;;;;3.55;1.00;;;;;;;;;;5034388;28;20022;-73
2023/06/27 08:52:38;;;;;;;3.70;1.00;;;;;;;;;;5033983;28;20037;-73
2023/06/27 08:55:05;;;;;;;4.18;1.00;;;;;;;;;;5033238;28;20038;-74
2023/06/27 08:57:32;;;;;;;5.25;0.77;;;;;;;;;;5032615;28;20033;-73
2023/06/27 09:00:04;;;;;;;3.15;1.23;;;;;;;;;;5033746;28;20102;-73
2023/06/27 09:02:31;;;;;;;2.85;0.70;;;;;;;;;;5033959;28;20051;-74
2023/06/27 09:04:58;;;;;;;4.07;0.85;;;;;;;;;;5033660;28;20039;-74
2023/06/27 09:07:24;;;;;;;2.70;0.80;;;;;;;;;;5034062;28;20353;-74
2023/06/27 09:09:51;;;;;;;2.72;0.90;;;;;;;;;;5034040;28;20137;-73
2023/06/27 09:12:17;;;;;;;3.60;1.00;;;;;;;;;;5033999;28;20060;-73
2023/06/27 09:14:43;;;;;;;2.30;0.52;;;;;;;;;;5033748;28;20032;-74
2023/06/27 09:17:09;;;;;;;3.63;0.80;;;;;;;;;;5033763;28;20025;-73
2023/06/27 09:19:41;;;;;;;4.68;0.82;;;;;;;;;;5032409;28;20029;-74
2023/06/27 09:22:08;;;;;;;2.42;0.70;;;;;;;;;;5033555;28;20036;-74
2023/06/27 09:24:40;;;;;;;1.35;0.70;;;;;;;;;;5033871;28;20187;-74
2023/06/27 09:27:06;;;;;;;1.58;0.70;;;;;;;;;;5033623;28;20469;-73
2023/06/27 09:29:32;;;;;;;1.95;0.77;;;;;;;;;;5033469;28;20021;-74
2023/06/27 09:32:10;;;;;;;5.15;0.98;;;;;;;;;;5033219;28;20108;-73
2023/06/27 09:34:36;;;;;;;2.38;0.73;;;;;;;;;;5031890;28;20021;-73
2023/06/27 09:37:03;;;;;;;3.83;0.93;;;;;;;;;;5032690;28;20030;-73
2023/06/27 09:39:29;;;;;;;2.80;0.82;;;;;;;;;;5033162;28;20025;-73
2023/06/27 09:41:55;;;;;;;3.33;1.02;;;;;;;;;;5033197;28;20061;-73
2023/06/27 09:44:22;;;;;;;3.15;1.00;;;;;;;;;;5033029;28;20053;-73
2023/06/27 09:46:49;;;;;;;2.92;0.82;;;;;;;;;;5033009;28;20056;-74
2023/06/27 09:49:15;;;;;;;3.03;0.70;;;;;;;;;;5032839;28;20032;-74
2023/06/27 09:51:45;;;;;;;3.40;1.20;;;;;;;;;;5032854;28;20056;-74
2023/06/27 09:54:11;;;;;;;2.90;0.82;;;;;;;;;;5032816;28;20022;-73
2023/06/27 09:56:37;;;;;;;4.85;0.85;;;;;;;;;;5031405;28;20132;-74
2023/06/27 09:59:10;;;;;;;4.57;1.00;;;;;;;;;;5030600;28;20040;-74
2023/06/27 10:01:37;;;;;;;2.78;0.70;;;;;;;;;;5012815;28;20109;-76
2023/06/27 10:04:03;;;;;;;3.05;0.88;;;;;;;;;;5013047;28;20021;-76
2023/06/27 10:06:30;;;;;;;2.75;0.90;;;;;;;;;;5012799;28;20048;-75
2023/06/27 10:08:56;;;;;;;4.97;0.80;;;;;;;;;;5023716;28;20029;-76
2023/06/27 10:11:23;;;;;;;3.83;0.88;;;;;;;;;;5014742;28;20513;-76
2023/06/27 10:13:49;;;;;;;4.72;1.00;;;;;;;;;;5012791;28;20834;-75
2023/06/27 10:16:17;;;;;;;3.20;0.80;;;;;;;;;;5011407;28;20531;-76
2023/06/27 10:18:43;;;;;;;3.38;0.98;;;;;;;;;;5012770;28;20069;-76
2023/06/27 10:21:09;;;;;;;2.30;0.70;;;;;;;;;;5012749;28;20069;-75
2023/06/27 10:23:37;;;;;;;5.00;1.00;;;;;;;;;;5012637;28;20428;-74
2023/06/27 10:26:03;;;;;;;2.70;0.70;;;;;;;;;;5012745;28;20098;-74
2023/06/27 10:28:33;;;;;;;3.75;1.00;;;;;;;;;;5012619;28;20030;-74
2023/06/27 10:30:59;;;;;;;;;;;;;;;;;;5032897;28;20104;-73
2023/06/27 10:33:29;;;;;;;3.78;0.90;;;;;;;;;;5029967;28;19967;-73
2023/06/27 10:36:07;;;;;;;3.22;0.90;;;;;;;;;;5016034;28;20061;-75
2023/06/27 10:38:34;;;;;;;3.58;1.00;;;;;;;;;;5031465;28;20076;-74
2023/06/27 10:41:06;;;;;;;3.63;0.80;;;;;;;;;;5013941;28;20029;-74
2023/06/27 10:43:35;;;;;;;2.63;0.60;;;;;;;;;;5031582;28;20022;-74
2023/06/27 10:46:06;;;;;;;1.40;0.80;;;;;;;;;;5012726;28;20033;-74
2023/06/27 10:48:33;;;;;;;10.15;1.00;;;;;;;;;;5012328;28;20018;-74
2023/06/27 10:51:06;;;;;;;4.38;1.05;;;;;;;;;;5015298;28;20473;-74
2023/06/27 10:53:33;;;;;;;3.75;0.95;;;;;;;;;;5016490;28;20113;-74
2023/06/27 10:56:03;;;;;;;3.45;0.80;;;;;;;;;;5016101;28;20523;-74
2023/06/27 10:58:44;;;;;;;3.20;0.80;;;;;;;;;;5016352;28;20022;-73
2023/06/27 11:01:11;;;;;;;3.33;0.70;;;;;;;;;;5016636;28;20433;-73
2023/06/27 11:03:38;;;;;;;3.42;0.95;;;;;;;;;;5016543;28;20049;-73
2023/06/27 11:06:05;;;;;;;1.90;0.70;;;;;;;;;;5021735;28;20672;-74
2023/06/27 11:08:31;;;;;;;1.13;0.50;;;;;;;;;;5035957;28;20025;-73
2023/06/27 11:11:00;;;;;;;3.67;0.90;;;;;;;;;;5035921;28;20030;-73
2023/06/27 11:13:30;;;;;;;1.58;0.70;;;;;;;;;;5035887;28;20495;-73
2023/06/27 11:15:56;;;;;;;2.42;0.50;;;;;;;;;;5035691;28;20100;-73
2023/06/27 11:18:25;;;;;;;4.10;0.85;;;;;;;;;;5035648;28;20025;-73
2023/06/27 11:20:51;;;;;;;2.85;0.68;;;;;;;;;;5036067;28;20097;-73
2023/06/27 11:23:20;;;;;;;3.03;1.02;;;;;;;;;;5034360;28;20021;-73
2023/06/27 11:25:46;;;;;;;7.53;0.98;;;;;;;;;;5035951;28;20029;-74
2023/06/27 11:28:22;;;;;;;2.38;0.77;;;;;;;;;;5035556;28;20099;-73
2023/06/27 11:30:48;;;;;;;3.38;0.85;;;;;;;;;;5035264;28;20053;-73
2023/06/27 11:33:19;;;;;;;3.78;1.08;;;;;;;;;;5035363;28;20029;-73
2023/06/27 11:35:45;;;;;;;4.15;0.90;;;;;;;;;;5035403;28;20025;-73
2023/06/27 11:38:12;;;;;;;3.45;1.17;;;;;;;;;;5035706;28;20161;-73
2023/06/27 11:40:47;;;;;;;4.05;0.90;;;;;;;;;;5035378;28;20024;-73
2023/06/27 11:43:15;;;;;;;3.17;0.82;;;;;;;;;;5035638;28;20025;-74
2023/06/27 11:45:44;;;;;;;3.80;0.90;;;;;;;;;;5035617;28;20030;-73
2023/06/27 11:48:10;;;;;;;4.22;0.88;;;;;;;;;;5035114;28;20025;-74
2023/06/27 11:50:36;;;;;;;3.25;0.80;;;;;;;;;;5035148;28;20028;-73
2023/06/27 11:53:02;;;;;;;4.10;1.02;;;;;;;;;;5035157;28;20025;-73
2023/06/27 11:55:28;;;;;;;3.88;0.82;;;;;;;;;;5034832;28;20045;-73
2023/06/27 11:57:55;;;;;;;3.92;0.90;;;;;;;;;;5034782;28;20551;-73
2023/06/27 12:00:22;;;;;;;4.55;0.73;;;;;;;;;;5034730;28;20036;-73
2023/06/27 12:02:52;;;;;;;2.92;1.00;;;;;;;;;;5034979;28;20025;-74
2023/06/27 12:05:19;;;;;;;4.03;0.80;;;;;;;;;;5034922;28;20062;-73
2023/06/27 12:07:57;;;;;;;3.45;0.88;;;;;;;;;;5034958;28;20053;-73
2023/06/27 12:10:23;;;;;;;2.00;0.82;;;;;;;;;;5035029;28;20060;-73
2023/06/27 12:12:51;;;;;;;3.88;0.70;;;;;;;;;;5034770;28;20057;-73
2023/06/27 12:15:17;;;;;;;2.45;0.70;;;;;;;;;;5034787;28;20021;-73
2023/06/27 12:17:55;;;;;;;3.47;0.80;;;;;;;;;;5034935;28;20072;-73
2023/06/27 12:20:22;;;;;;;4.13;0.87;;;;;;;;;;5034629;28;20491;-73
2023/06/27 12:22:48;;;;;;;2.70;1.17;;;;;;;;;;5033281;28;20025;-74
2023/06/27 12:25:14;;;;;;;3.72;0.80;;;;;;;;;;5034566;28;20469;-74
2023/06/27 12:27:40;;;;;;;2.50;0.80;;;;;;;;;;5033856;28;20026;-73
2023/06/27 12:30:09;;;;;;;5.00;0.93;;;;;;;;;;5034504;28;20096;-73
2023/06/27 12:32:35;;;;;;;5.45;1.00;;;;;;;;;;5034687;28;20025;-73
2023/06/27 12:35:02;;;;;;;4.07;1.00;;;;;;;;;;5034367;28;20026;-73
2023/06/27 12:37:28;;;;;;;2.42;0.77;;;;;;;;;;5034239;28;20519;-73
2023/06/27 12:39:55;;;;;;;3.85;1.13;;;;;;;;;;5034488;28;20014;-73
2023/06/27 12:42:21;;;;;;;4.57;1.08;;;;;;;;;;5034131;28;20022;-73
2023/06/27 12:44:49;;;;;;;4.25;1.02;;;;;;;;;;5033879;28;20662;-73
2023/06/27 12:47:15;;;;;;;2.05;0.88;;;;;;;;;;5034328;28;20078;-73
2023/06/27 12:49:41;;;;;;;3.17;1.17;;;;;;;;;;5034022;28;20025;-73
2023/06/27 12:52:07;;;;;;;3.72;0.73;;;;;;;;;;5034195;28;20025;-73
2023/06/27 12:54:33;;;;;;;1.63;1.02;;;;;;;;;;5034582;28;20671;-73
2023/06/27 12:56:59;;;;;;;2.60;1.10;;;;;;;;;;5032682;28;20054;-73
2023/06/27 12:59:26;;;;;;;4.25;1.10;;;;;;;;;;5033819;28;20025;-73
2023/06/27 13:01:57;;;;;;;6.32;1.35;;;;;;;;;;5034226;28;20026;-73
2023/06/27 13:04:23;;;;;;;4.07;1.10;;;;;;;;;;5034047;28;20013;-73
2023/06/27 13:06:49;;;;;;;4.53;0.90;;;;;;;;;;5034068;28;20034;-73
2023/06/27 13:09:15;;;;;;;2.15;0.88;;;;;;;;;;5033821;28;20052;-72
2023/06/27 13:11:42;;;;;;;4.18;0.98;;;;;;;;;;5033765;28;20483;-73
2023/06/27 13:14:08;;;;;;;1.55;0.73;;;;;;;;;;5033211;28;20032;-73
2023/06/27 13:16:34;;;;;;;3.42;1.02;;;;;;;;;;5033482;28;20029;-73
2023/06/27 13:19:05;;;;;;;2.10;0.90;;;;;;;;;;5033556;28;20035;-73
2023/06/27 13:21:31;;;;;;;4.30;1.40;;;;;;;;;;5025711;28;20022;-73
2023/06/27 13:23:57;;;;;;;3.17;1.10;;;;;;;;;;5014080;28;20068;-73
2023/06/27 13:26:23;;;;;;;5.13;1.25;;;;;;;;;;5013758;28;20049;-72
2023/06/27 13:28:49;;;;;;;3.13;0.85;;;;;;;;;;5033430;28;20041;-72
2023/06/27 13:31:15;;;;;;;3.75;1.10;;;;;;;;;;5032612;28;20026;-73
2023/06/27 13:33:41;;;;;;;4.78;1.30;;;;;;;;;;5013519;28;20029;-72
2023/06/27 13:36:07;;;;;;;4.57;1.00;;;;;;;;;;5013170;28;20029;-73
2023/06/27 13:38:33;;;;;;;5.40;0.80;;;;;;;;;;5013191;28;20056;-73
2023/06/27 13:40:59;;;;;;;3.08;1.05;;;;;;;;;;5013256;28;20104;-73
2023/06/27 13:43:25;;;;;;;3.70;0.93;;;;;;;;;;5013282;28;20061;-73
2023/06/27 13:45:54;;;;;;;3.08;0.90;;;;;;;;;;5013275;28;20452;-72
2023/06/27 13:48:21;;;;;;;1.83;1.10;;;;;;;;;;5013238;28;20049;-73
2023/06/27 13:50:48;;;;;;;4.85;1.10;;;;;;;;;;5013336;28;20028;-73
2023/06/27 13:53:15;;;;;;;3.00;0.98;;;;;;;;;;5013723;28;20026;-73
2023/06/27 13:55:41;;;;;;;2.83;0.82;;;;;;;;;;5011782;28;20477;-73
2023/06/27 13:58:07;;;;;;;3.95;1.25;;;;;;;;;;5012932;28;20458;-73
2023/06/27 14:00:33;;;;;;;5.68;0.90;;;;;;;;;;5012915;28;20061;-73
2023/06/27 14:03:00;;;;;;;4.13;0.80;;;;;;;;;;5012958;28;20057;-73
2023/06/27 14:05:26;;;;;;;4.40;1.00;;;;;;;;;;5013209;28;20034;-73
2023/06/27 14:07:54;;;;;;;2.28;0.68;;;;;;;;;;5013142;28;20081;-73
2023/06/27 14:10:21;;;;;;;3.95;1.00;;;;;;;;;;5013191;28;20022;-73
2023/06/27 14:12:48;;;;;;;3.85;1.10;;;;;;;;;;5013170;28;20014;-72
2023/06/27 14:15:14;;;;;;;2.78;1.15;;;;;;;;;;5013039;28;20050;-73
2023/06/27 14:17:40;;;;;;;5.45;1.20;;;;;;;;;;5012995;28;20029;-73
2023/06/27 14:20:08;;;;;;;4.80;1.40;;;;;;;;;;5012675;28;20038;-73
2023/06/27 14:22:34;;;;;;;6.70;1.35;;;;;;;;;;5013070;28;20018;-72
2023/06/27 14:25:00;;;;;;;4.00;1.10;;;;;;;;;;5011783;28;20520;-73
2023/06/27 14:27:26;;;;;;;3.08;1.23;;;;;;;;;;5012648;28;20430;-73
2023/06/27 14:29:52;;;;;;;3.88;1.00;;;;;;;;;;5012688;28;20037;-73
2023/06/27 14:32:18;;;;;;;3.22;0.80;;;;;;;;;;5012576;28;20109;-73
2023/06/27 14:34:44;;;;;;;2.67;0.80;;;;;;;;;;5012662;28;20030;-73
2023/06/27 14:37:10;;;;;;;3.75;0.93;;;;;;;;;;5012599;28;20434;-72
2023/06/27 14:39:36;;;;;;;6.78;1.33;;;;;;;;;;5012499;28;20121;-73
2023/06/27 14:42:02;;;;;;;3.92;1.10;;;;;;;;;;5012600;28;20026;-73